Terminal Aerodrome Forecast
Issued by NWS

Home | Current Version | Previous Version | Text Only | Print | Product List | Glossary Off
Versions: 1 2 3 4 5 6 7 8 9 10 11 12 13 14 15 16 17 18 19 20 21 22

000
FTUS43 KGRB 221100
TAFCWA
TAF
KCWA 221132Z 2212/2312 29005KT P6SM OVC018
     FM221900 23008KT P6SM SCT025
     FM230400 23011KT P6SM BKN200 WS015/25040KT=

USA.gov is the U.S. government's official web portal to all federal, state and local government web resources and services.